sensor_id;sensor_type;location;lat;lon;timestamp;pressure;altitude;pressure_sealevel;temperature;humidity
36138;BME280;67787;50.074;21.904;2023-03-03T00:01:27;99371.86;;;-2.64;64.90
36138;BME280;67787;50.074;21.904;2023-03-03T00:03:55;99371.39;;;-2.68;64.64
36138;BME280;67787;50.074;21.904;2023-03-03T00:06:23;99364.14;;;-2.71;64.67
36138;BME280;67787;50.074;21.904;2023-03-03T00:08:52;99362.41;;;-2.72;65.01
36138;BME280;67787;50.074;21.904;2023-03-03T00:11:19;99363.41;;;-2.69;65.08
36138;BME280;67787;50.074;21.904;2023-03-03T00:13:53;99363.63;;;-2.72;64.91
36138;BME280;67787;50.074;21.904;2023-03-03T00:18:52;99363.70;;;-2.78;65.00
36138;BME280;67787;50.074;21.904;2023-03-03T00:21:32;99361.48;;;-2.80;64.84
36138;BME280;67787;50.074;21.904;2023-03-03T00:24:16;99361.30;;;-2.80;65.00
36138;BME280;67787;50.074;21.904;2023-03-03T00:26:52;99363.59;;;-2.83;64.89
36138;BME280;67787;50.074;21.904;2023-03-03T00:29:35;99361.56;;;-2.87;65.04
36138;BME280;67787;50.074;21.904;2023-03-03T00:32:20;99361.63;;;-2.90;65.01
36138;BME280;67787;50.074;21.904;2023-03-03T00:34:51;99359.40;;;-2.93;65.08
36138;BME280;67787;50.074;21.904;2023-03-03T00:42:48;99353.31;;;-2.92;65.05
36138;BME280;67787;50.074;21.904;2023-03-03T00:45:25;99353.70;;;-2.95;65.34
36138;BME280;67787;50.074;21.904;2023-03-03T00:47:55;99351.77;;;-2.94;64.99
36138;BME280;67787;50.074;21.904;2023-03-03T00:50:33;99349.98;;;-2.90;65.04
36138;BME280;67787;50.074;21.904;2023-03-03T00:55:31;99352.37;;;-2.86;64.93
36138;BME280;67787;50.074;21.904;2023-03-03T00:58:02;99353.95;;;-2.88;65.32
36138;BME280;67787;50.074;21.904;2023-03-03T01:00:31;99352.92;;;-2.89;65.39
36138;BME280;67787;50.074;21.904;2023-03-03T01:03:03;99350.64;;;-2.87;65.40
36138;BME280;67787;50.074;21.904;2023-03-03T01:05:32;99347.20;;;-2.89;65.25
36138;BME280;67787;50.074;21.904;2023-03-03T01:08:01;99344.45;;;-2.91;65.43
36138;BME280;67787;50.074;21.904;2023-03-03T01:10:32;99346.38;;;-2.93;65.49
36138;BME280;67787;50.074;21.904;2023-03-03T01:13:03;99344.31;;;-2.94;65.37
36138;BME280;67787;50.074;21.904;2023-03-03T01:15:32;99348.81;;;-2.93;65.31
36138;BME280;67787;50.074;21.904;2023-03-03T01:18:00;99344.84;;;-2.94;65.49
36138;BME280;67787;50.074;21.904;2023-03-03T01:20:28;99345.55;;;-2.96;65.36
36138;BME280;67787;50.074;21.904;2023-03-03T01:22:56;99345.94;;;-3.00;65.32
36138;BME280;67787;50.074;21.904;2023-03-03T01:25:23;99341.94;;;-2.99;65.59
36138;BME280;67787;50.074;21.904;2023-03-03T01:27:52;99343.49;;;-2.98;65.54
36138;BME280;67787;50.074;21.904;2023-03-03T01:30:20;99344.52;;;-2.96;65.65
36138;BME280;67787;50.074;21.904;2023-03-03T01:32:48;99341.18;;;-2.94;65.60
36138;BME280;67787;50.074;21.904;2023-03-03T01:35:16;99338.40;;;-2.93;65.37
36138;BME280;67787;50.074;21.904;2023-03-03T01:37:44;99336.30;;;-2.91;65.65
36138;BME280;67787;50.074;21.904;2023-03-03T01:40:19;99333.98;;;-2.88;65.57
36138;BME280;67787;50.074;21.904;2023-03-03T01:42:48;99335.52;;;-2.85;65.67
36138;BME280;67787;50.074;21.904;2023-03-03T01:45:28;99331.83;;;-2.82;65.99
36138;BME280;67787;50.074;21.904;2023-03-03T01:48:05;99330.59;;;-2.81;65.73
36138;BME280;67787;50.074;21.904;2023-03-03T01:50:57;99332.08;;;-2.75;65.86
36138;BME280;67787;50.074;21.904;2023-03-03T01:53:46;99327.35;;;-2.72;65.83
36138;BME280;67787;50.074;21.904;2023-03-03T01:56:14;99326.42;;;-2.68;65.91
36138;BME280;67787;50.074;21.904;2023-03-03T01:58:49;99323.71;;;-2.61;65.81
36138;BME280;67787;50.074;21.904;2023-03-03T02:01:21;99324.08;;;-2.49;66.32
36138;BME280;67787;50.074;21.904;2023-03-03T02:03:51;99321.86;;;-2.42;66.15
36138;BME280;67787;50.074;21.904;2023-03-03T02:06:23;99323.45;;;-2.32;66.08
36138;BME280;67787;50.074;21.904;2023-03-03T02:11:57;99318.98;;;-2.14;66.27
36138;BME280;67787;50.074;21.904;2023-03-03T02:14:27;99320.59;;;-2.05;66.14
36138;BME280;67787;50.074;21.904;2023-03-03T02:16:54;99315.63;;;-2.01;66.22
36138;BME280;67787;50.074;21.904;2023-03-03T02:19:34;99314.11;;;-1.93;66.36
36138;BME280;67787;50.074;21.904;2023-03-03T02:22:06;99312.94;;;-1.86;66.48
36138;BME280;67787;50.074;21.904;2023-03-03T02:24:46;99310.21;;;-1.79;66.44
36138;BME280;67787;50.074;21.904;2023-03-03T02:27:16;99307.37;;;-1.76;66.40
36138;BME280;67787;50.074;21.904;2023-03-03T02:29:44;99309.22;;;-1.72;66.46
36138;BME280;67787;50.074;21.904;2023-03-03T02:32:12;99308.63;;;-1.69;66.63
36138;BME280;67787;50.074;21.904;2023-03-03T02:34:47;99307.52;;;-1.66;66.43
36138;BME280;67787;50.074;21.904;2023-03-03T02:37:15;99307.81;;;-1.62;66.46
36138;BME280;67787;50.074;21.904;2023-03-03T02:39:43;99303.39;;;-1.59;66.66
36138;BME280;67787;50.074;21.904;2023-03-03T02:42:20;99304.34;;;-1.54;66.65
36138;BME280;67787;50.074;21.904;2023-03-03T02:44:51;99304.95;;;-1.48;66.75
36138;BME280;67787;50.074;21.904;2023-03-03T02:47:19;99302.39;;;-1.43;66.57
36138;BME280;67787;50.074;21.904;2023-03-03T02:49:47;99302.16;;;-1.40;66.83
36138;BME280;67787;50.074;21.904;2023-03-03T02:52:14;99304.85;;;-1.35;66.73
36138;BME280;67787;50.074;21.904;2023-03-03T02:54:44;99303.57;;;-1.32;66.77
36138;BME280;67787;50.074;21.904;2023-03-03T02:57:13;99302.11;;;-1.29;66.74
36138;BME280;67787;50.074;21.904;2023-03-03T02:59:41;99303.23;;;-1.25;66.75
36138;BME280;67787;50.074;21.904;2023-03-03T03:02:09;99300.02;;;-1.21;66.87
36138;BME280;67787;50.074;21.904;2023-03-03T03:04:37;99297.33;;;-1.16;67.00
36138;BME280;67787;50.074;21.904;2023-03-03T03:07:05;99297.09;;;-1.13;66.85
36138;BME280;67787;50.074;21.904;2023-03-03T03:09:34;99296.88;;;-1.11;66.85
36138;BME280;67787;50.074;21.904;2023-03-03T03:12:01;99298.04;;;-1.09;66.96
36138;BME280;67787;50.074;21.904;2023-03-03T03:14:29;99299.92;;;-1.07;66.84
36138;BME280;67787;50.074;21.904;2023-03-03T03:16:57;99296.77;;;-1.05;67.07
36138;BME280;67787;50.074;21.904;2023-03-03T03:19:25;99294.05;;;-1.01;67.21
36138;BME280;67787;50.074;21.904;2023-03-03T03:21:55;99287.66;;;-0.96;67.21
36138;BME280;67787;50.074;21.904;2023-03-03T03:24:22;99284.30;;;-0.93;67.26
36138;BME280;67787;50.074;21.904;2023-03-03T03:26:50;99279.70;;;-0.90;67.30
36138;BME280;67787;50.074;21.904;2023-03-03T03:29:18;99275.67;;;-0.89;67.18
36138;BME280;67787;50.074;21.904;2023-03-03T03:31:46;99281.41;;;-0.88;67.31
36138;BME280;67787;50.074;21.904;2023-03-03T03:34:14;99281.92;;;-0.88;67.18
36138;BME280;67787;50.074;21.904;2023-03-03T03:36:43;99278.80;;;-0.88;67.10
36138;BME280;67787;50.074;21.904;2023-03-03T03:39:12;99279.30;;;-0.87;67.25
36138;BME280;67787;50.074;21.904;2023-03-03T03:41:40;99276.48;;;-0.86;67.12
36138;BME280;67787;50.074;21.904;2023-03-03T03:44:08;99277.86;;;-0.85;67.24
36138;BME280;67787;50.074;21.904;2023-03-03T03:46:36;99272.38;;;-0.82;67.37
36138;BME280;67787;50.074;21.904;2023-03-03T03:49:04;99273.88;;;-0.78;67.31
36138;BME280;67787;50.074;21.904;2023-03-03T03:51:32;99270.52;;;-0.76;67.33
36138;BME280;67787;50.074;21.904;2023-03-03T03:54:02;99269.39;;;-0.73;67.40
36138;BME280;67787;50.074;21.904;2023-03-03T03:56:30;99269.38;;;-0.72;67.41
36138;BME280;67787;50.074;21.904;2023-03-03T03:58:57;99266.73;;;-0.71;67.46
36138;BME280;67787;50.074;21.904;2023-03-03T04:01:27;99268.97;;;-0.69;67.50
36138;BME280;67787;50.074;21.904;2023-03-03T04:03:55;99262.52;;;-0.69;67.39
36138;BME280;67787;50.074;21.904;2023-03-03T04:06:23;99260.17;;;-0.66;67.44
36138;BME280;67787;50.074;21.904;2023-03-03T04:08:51;99261.54;;;-0.64;67.42
36138;BME280;67787;50.074;21.904;2023-03-03T04:11:19;99260.33;;;-0.65;67.40
36138;BME280;67787;50.074;21.904;2023-03-03T04:13:47;99257.38;;;-0.65;67.32
36138;BME280;67787;50.074;21.904;2023-03-03T04:16:15;99254.15;;;-0.62;67.59
36138;BME280;67787;50.074;21.904;2023-03-03T04:18:43;99252.23;;;-0.61;67.54
36138;BME280;67787;50.074;21.904;2023-03-03T04:21:14;99252.73;;;-0.61;67.61
36138;BME280;67787;50.074;21.904;2023-03-03T04:23:42;99252.19;;;-0.60;67.63
36138;BME280;67787;50.074;21.904;2023-03-03T04:26:10;99256.88;;;-0.60;67.51
36138;BME280;67787;50.074;21.904;2023-03-03T04:28:38;99247.98;;;-0.58;67.65
36138;BME280;67787;50.074;21.904;2023-03-03T04:31:06;99240.45;;;-0.57;67.61
36138;BME280;67787;50.074;21.904;2023-03-03T04:33:34;99239.01;;;-0.55;67.57
36138;BME280;67787;50.074;21.904;2023-03-03T04:36:03;99239.88;;;-0.55;67.64
36138;BME280;67787;50.074;21.904;2023-03-03T04:38:31;99239.46;;;-0.52;67.71
36138;BME280;67787;50.074;21.904;2023-03-03T04:40:59;99242.21;;;-0.50;67.75
36138;BME280;67787;50.074;21.904;2023-03-03T04:43:27;99244.96;;;-0.49;67.73
36138;BME280;67787;50.074;21.904;2023-03-03T04:45:55;99246.67;;;-0.48;67.71
36138;BME280;67787;50.074;21.904;2023-03-03T04:48:23;99243.13;;;-0.45;67.89
36138;BME280;67787;50.074;21.904;2023-03-03T04:50:51;99243.79;;;-0.43;67.76
36138;BME280;67787;50.074;21.904;2023-03-03T04:53:19;99244.63;;;-0.42;67.80
36138;BME280;67787;50.074;21.904;2023-03-03T04:55:51;99248.43;;;-0.41;67.77
36138;BME280;67787;50.074;21.904;2023-03-03T04:58:20;99242.30;;;-0.40;68.04
36138;BME280;67787;50.074;21.904;2023-03-03T05:00:55;99244.71;;;-0.39;67.91
36138;BME280;67787;50.074;21.904;2023-03-03T05:03:23;99247.98;;;-0.37;67.98
36138;BME280;67787;50.074;21.904;2023-03-03T05:05:54;99249.35;;;-0.36;67.98
36138;BME280;67787;50.074;21.904;2023-03-03T05:08:22;99246.17;;;-0.34;67.94
36138;BME280;67787;50.074;21.904;2023-03-03T05:10:51;99246.66;;;-0.33;67.69
36138;BME280;67787;50.074;21.904;2023-03-03T05:13:19;99247.19;;;-0.33;67.96
36138;BME280;67787;50.074;21.904;2023-03-03T05:15:51;99246.45;;;-0.32;68.06
36138;BME280;67787;50.074;21.904;2023-03-03T05:18:20;99249.19;;;-0.28;67.98
36138;BME280;67787;50.074;21.904;2023-03-03T05:20:50;99247.60;;;-0.28;68.01
36138;BME280;67787;50.074;21.904;2023-03-03T05:23:19;99251.37;;;-0.26;68.05
36138;BME280;67787;50.074;21.904;2023-03-03T05:25:48;99253.09;;;-0.25;68.07
36138;BME280;67787;50.074;21.904;2023-03-03T05:28:17;99253.99;;;-0.26;68.09
36138;BME280;67787;50.074;21.904;2023-03-03T05:30:45;99256.14;;;-0.29;67.93
36138;BME280;67787;50.074;21.904;2023-03-03T05:33:14;99257.19;;;-0.29;68.14
36138;BME280;67787;50.074;21.904;2023-03-03T05:35:42;99258.20;;;-0.27;68.13
36138;BME280;67787;50.074;21.904;2023-03-03T05:38:10;99261.48;;;-0.26;68.09
36138;BME280;67787;50.074;21.904;2023-03-03T05:40:38;99260.45;;;-0.26;67.96
36138;BME280;67787;50.074;21.904;2023-03-03T05:43:06;99266.70;;;-0.25;68.01
36138;BME280;67787;50.074;21.904;2023-03-03T05:45:34;99264.22;;;-0.24;68.18
36138;BME280;67787;50.074;21.904;2023-03-03T05:48:02;99268.73;;;-0.23;68.12
36138;BME280;67787;50.074;21.904;2023-03-03T05:50:31;99270.45;;;-0.22;68.19
36138;BME280;67787;50.074;21.904;2023-03-03T05:52:59;99269.88;;;-0.21;68.15
36138;BME280;67787;50.074;21.904;2023-03-03T05:55:27;99271.98;;;-0.21;68.26
36138;BME280;67787;50.074;21.904;2023-03-03T05:57:56;99274.42;;;-0.21;68.19
36138;BME280;67787;50.074;21.904;2023-03-03T06:00:24;99276.42;;;-0.18;68.21
36138;BME280;67787;50.074;21.904;2023-03-03T06:02:52;99275.30;;;-0.15;68.40
36138;BME280;67787;50.074;21.904;2023-03-03T06:05:20;99270.38;;;-0.12;68.35
36138;BME280;67787;50.074;21.904;2023-03-03T06:07:47;99268.89;;;-0.09;68.41
36138;BME280;67787;50.074;21.904;2023-03-03T06:10:16;99269.61;;;-0.03;68.36
36138;BME280;67787;50.074;21.904;2023-03-03T06:12:44;99273.52;;;0.01;68.47
36138;BME280;67787;50.074;21.904;2023-03-03T06:15:12;99268.14;;;0.00;68.37
36138;BME280;67787;50.074;21.904;2023-03-03T06:17:40;99267.45;;;-0.00;68.46
36138;BME280;67787;50.074;21.904;2023-03-03T06:20:08;99270.72;;;0.01;68.44
36138;BME280;67787;50.074;21.904;2023-03-03T06:22:37;99271.34;;;0.05;68.55
36138;BME280;67787;50.074;21.904;2023-03-03T06:25:05;99272.78;;;0.09;68.42
36138;BME280;67787;50.074;21.904;2023-03-03T06:27:34;99279.27;;;0.08;68.41
36138;BME280;67787;50.074;21.904;2023-03-03T06:30:02;99279.33;;;0.05;68.38
36138;BME280;67787;50.074;21.904;2023-03-03T06:32:30;99274.49;;;0.04;68.41
36138;BME280;67787;50.074;21.904;2023-03-03T06:34:59;99282.00;;;0.03;68.42
36138;BME280;67787;50.074;21.904;2023-03-03T06:37:26;99279.77;;;0.01;68.49
36138;BME280;67787;50.074;21.904;2023-03-03T06:39:54;99277.33;;;0.02;68.53
36138;BME280;67787;50.074;21.904;2023-03-03T06:42:22;99276.30;;;0.08;68.67
36138;BME280;67787;50.074;21.904;2023-03-03T06:44:51;99279.69;;;0.12;68.64
36138;BME280;67787;50.074;21.904;2023-03-03T06:47:19;99281.60;;;0.12;68.68
36138;BME280;67787;50.074;21.904;2023-03-03T06:49:48;99282.67;;;0.10;68.57
36138;BME280;67787;50.074;21.904;2023-03-03T06:52:19;99282.88;;;0.09;68.55
36138;BME280;67787;50.074;21.904;2023-03-03T06:54:52;99284.54;;;0.13;68.58
36138;BME280;67787;50.074;21.904;2023-03-03T06:57:30;99284.83;;;0.16;68.69
36138;BME280;67787;50.074;21.904;2023-03-03T07:00:16;99291.06;;;0.17;68.76
36138;BME280;67787;50.074;21.904;2023-03-03T07:02:46;99284.30;;;0.16;68.65
36138;BME280;67787;50.074;21.904;2023-03-03T07:05:16;99282.52;;;0.23;68.72
36138;BME280;67787;50.074;21.904;2023-03-03T07:07:44;99279.16;;;0.32;68.77
36138;BME280;67787;50.074;21.904;2023-03-03T07:10:21;99282.05;;;0.41;68.78
36138;BME280;67787;50.074;21.904;2023-03-03T07:12:50;99286.92;;;0.48;68.87
36138;BME280;67787;50.074;21.904;2023-03-03T07:15:29;99289.02;;;0.47;68.63
36138;BME280;67787;50.074;21.904;2023-03-03T07:17:59;99282.48;;;0.51;68.87
36138;BME280;67787;50.074;21.904;2023-03-03T07:20:34;99282.37;;;0.54;68.82
36138;BME280;67787;50.074;21.904;2023-03-03T07:23:25;99277.48;;;0.61;68.69
36138;BME280;67787;50.074;21.904;2023-03-03T07:25:54;99280.73;;;0.69;69.00
36138;BME280;67787;50.074;21.904;2023-03-03T07:28:32;99284.20;;;0.76;68.76
36138;BME280;67787;50.074;21.904;2023-03-03T07:31:00;99280.37;;;0.82;68.87
36138;BME280;67787;50.074;21.904;2023-03-03T07:33:34;99285.23;;;0.89;69.05
36138;BME280;67787;50.074;21.904;2023-03-03T07:36:03;99278.75;;;0.89;68.96
36138;BME280;67787;50.074;21.904;2023-03-03T07:38:44;99279.52;;;0.93;68.95
36138;BME280;67787;50.074;21.904;2023-03-03T07:41:17;99277.62;;;0.98;69.08
36138;BME280;67787;50.074;21.904;2023-03-03T07:44:20;99267.83;;;1.04;68.89
36138;BME280;67787;50.074;21.904;2023-03-03T07:46:49;99266.63;;;1.15;69.18
36138;BME280;67787;50.074;21.904;2023-03-03T07:51:56;99266.45;;;1.22;68.80
36138;BME280;67787;50.074;21.904;2023-03-03T07:54:31;99265.08;;;1.26;68.98
36138;BME280;67787;50.074;21.904;2023-03-03T07:57:14;99261.73;;;1.32;68.87
36138;BME280;67787;50.074;21.904;2023-03-03T07:59:48;99253.08;;;1.46;68.97
36138;BME280;67787;50.074;21.904;2023-03-03T08:02:29;99252.98;;;1.55;68.85
36138;BME280;67787;50.074;21.904;2023-03-03T08:05:00;99256.11;;;1.61;69.09
36138;BME280;67787;50.074;21.904;2023-03-03T08:07:34;99259.70;;;1.63;68.90
36138;BME280;67787;50.074;21.904;2023-03-03T08:10:35;99261.35;;;1.61;69.10
36138;BME280;67787;50.074;21.904;2023-03-03T08:13:23;99259.02;;;1.62;69.24
36138;BME280;67787;50.074;21.904;2023-03-03T08:15:56;99260.98;;;1.67;68.73
36138;BME280;67787;50.074;21.904;2023-03-03T08:18:27;99264.81;;;1.72;69.00
36138;BME280;67787;50.074;21.904;2023-03-03T08:20:59;99266.89;;;1.68;69.05
36138;BME280;67787;50.074;21.904;2023-03-03T08:23:28;99264.86;;;1.60;68.85
36138;BME280;67787;50.074;21.904;2023-03-03T08:25:55;99261.30;;;1.57;68.88
36138;BME280;67787;50.074;21.904;2023-03-03T08:28:24;99261.89;;;1.55;68.70
36138;BME280;67787;50.074;21.904;2023-03-03T08:30:52;99261.69;;;1.56;68.93
36138;BME280;67787;50.074;21.904;2023-03-03T08:33:35;99260.21;;;1.58;69.09
36138;BME280;67787;50.074;21.904;2023-03-03T08:36:05;99257.77;;;1.68;69.12
36138;BME280;67787;50.074;21.904;2023-03-03T08:38:36;99260.91;;;1.85;69.18
36138;BME280;67787;50.074;21.904;2023-03-03T08:41:05;99265.79;;;2.01;69.13
36138;BME280;67787;50.074;21.904;2023-03-03T08:43:33;99263.64;;;2.07;69.10
36138;BME280;67787;50.074;21.904;2023-03-03T08:46:03;99262.20;;;2.09;68.97
36138;BME280;67787;50.074;21.904;2023-03-03T08:48:32;99261.70;;;2.13;69.19
36138;BME280;67787;50.074;21.904;2023-03-03T08:51:04;99265.39;;;2.13;69.25
36138;BME280;67787;50.074;21.904;2023-03-03T08:53:33;99262.36;;;2.04;69.12
36138;BME280;67787;50.074;21.904;2023-03-03T08:56:04;99267.70;;;1.97;69.09
36138;BME280;67787;50.074;21.904;2023-03-03T08:58:32;99269.30;;;1.96;68.87
36138;BME280;67787;50.074;21.904;2023-03-03T09:01:03;99271.15;;;2.08;69.14
36138;BME280;67787;50.074;21.904;2023-03-03T09:03:31;99269.45;;;2.27;69.25
36138;BME280;67787;50.074;21.904;2023-03-03T09:06:00;99275.90;;;2.37;69.24
36138;BME280;67787;50.074;21.904;2023-03-03T09:08:28;99272.71;;;2.43;69.24
36138;BME280;67787;50.074;21.904;2023-03-03T09:10:56;99274.58;;;2.50;68.79
36138;BME280;67787;50.074;21.904;2023-03-03T09:13:24;99267.84;;;2.57;68.79
36138;BME280;67787;50.074;21.904;2023-03-03T09:15:52;99266.15;;;2.70;69.06
36138;BME280;67787;50.074;21.904;2023-03-03T09:18:34;99261.66;;;2.91;69.20
36138;BME280;67787;50.074;21.904;2023-03-03T09:21:22;99258.34;;;3.14;69.27
36138;BME280;67787;50.074;21.904;2023-03-03T09:23:54;99258.41;;;3.35;69.09
36138;BME280;67787;50.074;21.904;2023-03-03T09:26:25;99258.40;;;3.44;68.94
36138;BME280;67787;50.074;21.904;2023-03-03T09:29:10;99258.44;;;3.34;68.84
36138;BME280;67787;50.074;21.904;2023-03-03T09:31:49;99256.56;;;3.20;69.19
36138;BME280;67787;50.074;21.904;2023-03-03T09:34:41;99261.05;;;3.12;68.71
36138;BME280;67787;50.074;21.904;2023-03-03T09:37:26;99263.81;;;3.04;68.74
36138;BME280;67787;50.074;21.904;2023-03-03T09:39:56;99266.42;;;3.01;68.66
36138;BME280;67787;50.074;21.904;2023-03-03T09:54:38;99274.36;;;3.44;68.65
36138;BME280;67787;50.074;21.904;2023-03-03T09:56:55;99274.56;;;3.48;68.99
36138;BME280;67787;50.074;21.904;2023-03-03T09:59:36;99276.17;;;3.47;68.83
36138;BME280;67787;50.074;21.904;2023-03-03T10:03:11;99283.42;;;3.41;68.75
36138;BME280;67787;50.074;21.904;2023-03-03T10:05:38;99284.66;;;3.36;68.78
36138;BME280;67787;50.074;21.904;2023-03-03T10:19:34;99299.58;;;3.04;68.52
36138;BME280;67787;50.074;21.904;2023-03-03T10:22:23;99300.92;;;2.91;68.03
36138;BME280;67787;50.074;21.904;2023-03-03T10:25:28;99296.73;;;2.86;68.56
36138;BME280;67787;50.074;21.904;2023-03-03T10:33:46;99274.36;;;3.30;68.63
36138;BME280;67787;50.074;21.904;2023-03-03T10:38:57;99283.63;;;3.17;68.18
36138;BME280;67787;50.074;21.904;2023-03-03T10:44:22;99275.78;;;3.17;68.57
36138;BME280;67787;50.074;21.904;2023-03-03T10:49:44;99276.70;;;3.51;68.62
36138;BME280;67787;50.074;21.904;2023-03-03T10:55:16;99268.70;;;3.71;68.57
36138;BME280;67787;50.074;21.904;2023-03-03T11:00:40;99260.64;;;3.79;68.14
36138;BME280;67787;50.074;21.904;2023-03-03T11:06:36;99262.14;;;3.77;67.90
36138;BME280;67787;50.074;21.904;2023-03-03T11:15:07;99250.77;;;3.59;68.14
36138;BME280;67787;50.074;21.904;2023-03-03T11:23:57;99254.18;;;3.44;67.88
36138;BME280;67787;50.074;21.904;2023-03-03T11:27:07;99250.24;;;3.51;67.97
36138;BME280;67787;50.074;21.904;2023-03-03T11:35:06;99245.76;;;3.57;68.08
36138;BME280;67787;50.074;21.904;2023-03-03T11:37:45;99242.27;;;3.57;67.98
36138;BME280;67787;50.074;21.904;2023-03-03T11:40:21;99240.48;;;3.58;68.17
36138;BME280;67787;50.074;21.904;2023-03-03T11:43:02;99237.26;;;3.55;67.85
36138;BME280;67787;50.074;21.904;2023-03-03T11:45:44;99228.30;;;3.51;67.87
36138;BME280;67787;50.074;21.904;2023-03-03T11:49:02;99228.95;;;3.56;67.91
36138;BME280;67787;50.074;21.904;2023-03-03T11:51:12;99231.41;;;3.66;67.98
36138;BME280;67787;50.074;21.904;2023-03-03T11:54:03;99222.91;;;3.67;67.93
36138;BME280;67787;50.074;21.904;2023-03-03T11:56:39;99220.65;;;3.70;67.63
36138;BME280;67787;50.074;21.904;2023-03-03T12:02:02;99220.80;;;3.88;67.76
36138;BME280;67787;50.074;21.904;2023-03-03T12:04:46;99215.19;;;3.92;67.29
36138;BME280;67787;50.074;21.904;2023-03-03T12:10:21;99216.53;;;3.90;66.62
36138;BME280;67787;50.074;21.904;2023-03-03T12:13:02;99216.86;;;3.82;66.68
36138;BME280;67787;50.074;21.904;2023-03-03T12:15:39;99211.89;;;3.83;67.03
36138;BME280;67787;50.074;21.904;2023-03-03T12:21:43;99209.75;;;3.84;66.97
36138;BME280;67787;50.074;21.904;2023-03-03T12:26:57;99206.66;;;4.03;67.03
36138;BME280;67787;50.074;21.904;2023-03-03T12:35:05;99191.23;;;4.15;66.83
36138;BME280;67787;50.074;21.904;2023-03-03T12:37:57;99191.48;;;4.17;66.67
36138;BME280;67787;50.074;21.904;2023-03-03T12:40:37;99190.05;;;4.26;66.90
36138;BME280;67787;50.074;21.904;2023-03-03T12:46:51;99183.45;;;4.24;66.28
36138;BME280;67787;50.074;21.904;2023-03-03T12:49:34;99179.73;;;4.29;67.06
36138;BME280;67787;50.074;21.904;2023-03-03T12:55:03;99182.26;;;4.24;66.67
36138;BME280;67787;50.074;21.904;2023-03-03T12:57:55;99183.95;;;4.25;66.14
36138;BME280;67787;50.074;21.904;2023-03-03T13:00:53;99184.62;;;4.22;66.28
36138;BME280;67787;50.074;21.904;2023-03-03T13:03:44;99183.03;;;4.14;66.10
36138;BME280;67787;50.074;21.904;2023-03-03T13:15:02;99179.73;;;4.05;65.85
36138;BME280;67787;50.074;21.904;2023-03-03T13:17:47;99174.16;;;4.04;66.09
36138;BME280;67787;50.074;21.904;2023-03-03T13:23:53;99170.85;;;4.11;66.43
36138;BME280;67787;50.074;21.904;2023-03-03T13:26:35;99171.21;;;4.11;65.79
36138;BME280;67787;50.074;21.904;2023-03-03T13:31:54;99168.96;;;4.14;65.81
36138;BME280;67787;50.074;21.904;2023-03-03T13:37:13;99173.75;;;4.25;66.04
36138;BME280;67787;50.074;21.904;2023-03-03T13:42:23;99175.25;;;4.15;65.58
36138;BME280;67787;50.074;21.904;2023-03-03T13:44:55;99173.02;;;4.06;65.20
36138;BME280;67787;50.074;21.904;2023-03-03T13:47:49;99176.20;;;3.97;65.19
36138;BME280;67787;50.074;21.904;2023-03-03T13:50:29;99182.05;;;3.92;65.02
36138;BME280;67787;50.074;21.904;2023-03-03T13:53:36;99184.06;;;3.74;64.36
36138;BME280;67787;50.074;21.904;2023-03-03T13:59:19;99185.69;;;3.47;64.68
36138;BME280;67787;50.074;21.904;2023-03-03T14:04:49;99194.44;;;3.31;65.24
36138;BME280;67787;50.074;21.904;2023-03-03T14:07:44;99195.65;;;3.18;64.79
36138;BME280;67787;50.074;21.904;2023-03-03T14:10:30;99197.23;;;3.04;65.04
36138;BME280;67787;50.074;21.904;2023-03-03T14:13:10;99194.51;;;3.03;64.91
36138;BME280;67787;50.074;21.904;2023-03-03T14:15:54;99189.42;;;3.03;64.79
36138;BME280;67787;50.074;21.904;2023-03-03T14:18:28;99187.27;;;3.00;64.73
36138;BME280;67787;50.074;21.904;2023-03-03T14:21:10;99186.33;;;2.96;65.08
36138;BME280;67787;50.074;21.904;2023-03-03T14:24:10;99185.56;;;2.93;65.27
36138;BME280;67787;50.074;21.904;2023-03-03T14:26:50;99187.60;;;2.91;64.88
36138;BME280;67787;50.074;21.904;2023-03-03T14:29:30;99185.52;;;2.86;64.83
36138;BME280;67787;50.074;21.904;2023-03-03T14:32:01;99189.33;;;2.82;65.01
36138;BME280;67787;50.074;21.904;2023-03-03T14:34:34;99187.09;;;2.77;64.95
36138;BME280;67787;50.074;21.904;2023-03-03T14:42:54;99190.02;;;2.64;65.42
36138;BME280;67787;50.074;21.904;2023-03-03T14:45:36;99192.85;;;2.63;65.06
36138;BME280;67787;50.074;21.904;2023-03-03T14:48:25;99196.15;;;2.54;64.95
36138;BME280;67787;50.074;21.904;2023-03-03T14:51:00;99200.23;;;2.44;64.87
36138;BME280;67787;50.074;21.904;2023-03-03T14:53:47;99206.21;;;2.33;65.08
36138;BME280;67787;50.074;21.904;2023-03-03T14:58:53;99204.33;;;2.18;65.06
36138;BME280;67787;50.074;21.904;2023-03-03T15:01:32;99205.89;;;2.13;65.28
36138;BME280;67787;50.074;21.904;2023-03-03T15:04:22;99199.72;;;2.09;64.99
36138;BME280;67787;50.074;21.904;2023-03-03T15:06:52;99203.62;;;2.07;65.34
36138;BME280;67787;50.074;21.904;2023-03-03T15:11:53;99195.23;;;2.02;65.11
36138;BME280;67787;50.074;21.904;2023-03-03T15:14:30;99195.39;;;1.98;65.31
36138;BME280;67787;50.074;21.904;2023-03-03T15:17:34;99193.77;;;1.94;65.33
36138;BME280;67787;50.074;21.904;2023-03-03T15:23:43;99188.35;;;1.89;65.58
36138;BME280;67787;50.074;21.904;2023-03-03T15:45:30;99186.02;;;1.60;65.16
36138;BME280;67787;50.074;21.904;2023-03-03T15:48:25;99186.39;;;1.55;65.51
36138;BME280;67787;50.074;21.904;2023-03-03T16:04:09;99193.23;;;1.28;65.36
36138;BME280;67787;50.074;21.904;2023-03-03T16:07:08;99188.44;;;1.24;65.52
36138;BME280;67787;50.074;21.904;2023-03-03T16:23:55;99192.91;;;0.93;65.48
36138;BME280;67787;50.074;21.904;2023-03-03T16:26:52;99190.14;;;0.86;65.46
36138;BME280;67787;50.074;21.904;2023-03-03T16:29:43;99194.52;;;0.80;65.55
36138;BME280;67787;50.074;21.904;2023-03-03T16:35:22;99195.84;;;0.65;65.93
36138;BME280;67787;50.074;21.904;2023-03-03T16:38:05;99200.13;;;0.57;65.95
36138;BME280;67787;50.074;21.904;2023-03-03T16:40:53;99195.80;;;0.49;65.88
36138;BME280;67787;50.074;21.904;2023-03-03T16:43:42;99201.53;;;0.43;66.38
36138;BME280;67787;50.074;21.904;2023-03-03T16:46:31;99201.71;;;0.38;65.79